createdAt,value
2023-10-22T00:01:42.709Z,0.50
2023-10-22T00:04:12.209Z,0.43
2023-10-22T00:06:40.705Z,0.60
2023-10-22T00:09:09.335Z,0.40
2023-10-22T00:11:38.791Z,0.60
2023-10-22T00:14:07.984Z,0.50
2023-10-22T00:16:36.662Z,0.85
2023-10-22T00:19:05.097Z,0.30
2023-10-22T00:21:36.819Z,0.35
2023-10-22T00:24:05.572Z,0.65
2023-10-22T00:26:37.081Z,0.30
2023-10-22T00:29:05.623Z,0.55
2023-10-22T00:31:35.104Z,0.20
2023-10-22T00:34:06.046Z,0.40
2023-10-22T00:36:35.453Z,0.50
2023-10-22T00:39:04.005Z,0.50
2023-10-22T00:41:32.633Z,0.52
2023-10-22T00:44:02.685Z,1.50
2023-10-22T00:46:32.183Z,0.70
2023-10-22T00:49:03.113Z,0.30
2023-10-22T00:51:31.831Z,0.40
2023-10-22T00:54:00.320Z,0.20
2023-10-22T00:56:34.484Z,0.32
2023-10-22T00:59:03.573Z,0.63
2023-10-22T01:01:32.790Z,0.50
2023-10-22T01:04:01.969Z,0.38
2023-10-22T01:06:33.130Z,0.77
2023-10-22T01:09:02.329Z,0.57
2023-10-22T01:11:32.754Z,0.35
2023-10-22T01:14:01.099Z,0.30
2023-10-22T01:16:30.398Z,0.52
2023-10-22T01:18:59.176Z,0.77
2023-10-22T01:21:30.285Z,0.60
2023-10-22T01:24:00.207Z,0.60
2023-10-22T01:26:30.711Z,0.30
2023-10-22T01:28:59.152Z,0.85
2023-10-22T01:31:27.529Z,0.70
2023-10-22T01:33:57.611Z,0.40
2023-10-22T01:36:27.465Z,0.35
2023-10-22T01:38:56.835Z,0.40
2023-10-22T01:41:27.152Z,0.30
2023-10-22T01:43:57.452Z,0.30
2023-10-22T01:46:26.860Z,0.40
2023-10-22T01:48:57.240Z,0.30
2023-10-22T01:51:25.997Z,0.30
2023-10-22T01:53:54.758Z,0.35
2023-10-22T01:56:24.104Z,0.40
2023-10-22T01:58:53.759Z,0.40
2023-10-22T02:01:22.431Z,0.30
2023-10-22T02:04:01.016Z,0.30
2023-10-22T02:06:30.866Z,1.25
2023-10-22T02:09:01.278Z,0.32
2023-10-22T02:11:31.313Z,0.38
2023-10-22T02:13:59.814Z,0.50
2023-10-22T02:16:28.893Z,0.25
2023-10-22T02:18:57.347Z,0.40
2023-10-22T02:21:27.697Z,0.32
2023-10-22T02:23:57.399Z,0.38
2023-10-22T02:26:26.494Z,0.50
2023-10-22T02:28:54.741Z,0.40
2023-10-22T02:31:23.349Z,0.50
2023-10-22T02:34:02.317Z,0.25
2023-10-22T02:36:32.093Z,0.50
2023-10-22T02:39:02.906Z,0.20
2023-10-22T02:44:04.180Z,0.40
2023-10-22T02:46:34.172Z,0.25
2023-10-22T02:49:02.801Z,0.35
2023-10-22T02:51:31.639Z,0.20
2023-10-22T02:54:00.540Z,0.38
2023-10-22T02:56:29.185Z,0.40
2023-10-22T02:58:57.523Z,0.40
2023-10-22T03:01:26.085Z,0.60
2023-10-22T03:03:55.991Z,0.30
2023-10-22T03:06:24.604Z,0.90
2023-10-22T03:08:52.838Z,0.20
2023-10-22T03:11:21.774Z,0.20
2023-10-22T03:13:51.655Z,0.20
2023-10-22T03:16:20.379Z,0.47
2023-10-22T03:18:50.232Z,0.30
2023-10-22T03:21:20.388Z,0.40
2023-10-22T03:23:49.443Z,0.40
2023-10-22T03:26:19.728Z,0.25
2023-10-22T03:28:48.940Z,0.20
2023-10-22T03:31:18.251Z,0.20
2023-10-22T03:33:48.998Z,0.52
2023-10-22T03:36:17.415Z,0.30
2023-10-22T03:38:46.164Z,0.20
2023-10-22T03:41:15.527Z,0.20
2023-10-22T03:43:43.929Z,0.20
2023-10-22T03:46:14.409Z,0.30
2023-10-22T03:48:43.122Z,0.25
2023-10-22T03:51:14.041Z,0.20
2023-10-22T03:53:42.997Z,0.40
2023-10-22T03:56:11.852Z,0.30
2023-10-22T03:58:41.017Z,0.52
2023-10-22T04:01:09.456Z,0.20
2023-10-22T04:03:42.095Z,0.30
2023-10-22T04:06:10.300Z,0.10
2023-10-22T04:08:39.428Z,0.20
2023-10-22T04:11:08.533Z,0.20
2023-10-22T04:13:37.234Z,0.20
2023-10-22T04:16:05.842Z,0.28
2023-10-22T04:18:34.776Z,0.20
2023-10-22T04:21:03.506Z,0.15
2023-10-22T04:23:33.886Z,0.15
2023-10-22T04:26:02.528Z,0.10
2023-10-22T04:28:31.008Z,0.20
2023-10-22T04:30:59.364Z,0.30
2023-10-22T04:33:35.343Z,0.10
2023-10-22T04:36:05.093Z,0.20
2023-10-22T04:38:49.392Z,0.30
2023-10-22T04:41:23.083Z,0.10
2023-10-22T04:43:51.334Z,0.20
2023-10-22T04:46:22.260Z,0.30
2023-10-22T04:48:53.199Z,0.38
2023-10-22T04:51:22.855Z,0.20
2023-10-22T04:53:54.374Z,0.40
2023-10-22T04:56:27.233Z,0.20
2023-10-22T04:58:56.857Z,0.17
2023-10-22T05:01:25.713Z,0.25
2023-10-22T05:04:03.907Z,0.30
2023-10-22T05:06:38.339Z,0.30
2023-10-22T05:09:06.744Z,0.30
2023-10-22T05:11:35.425Z,0.20
2023-10-22T05:14:04.597Z,0.20
2023-10-22T05:16:35.049Z,0.20
2023-10-22T05:19:04.472Z,0.25
2023-10-22T05:21:33.334Z,0.17
2023-10-22T05:24:01.740Z,0.20
2023-10-22T05:26:31.850Z,0.20
2023-10-22T05:29:00.810Z,0.30
2023-10-22T05:31:32.413Z,0.22
2023-10-22T05:34:00.706Z,0.30
2023-10-22T05:36:30.024Z,0.08
2023-10-22T05:38:58.192Z,0.20
2023-10-22T05:41:27.997Z,0.17
2023-10-22T05:44:00.095Z,0.20
2023-10-22T05:46:38.110Z,0.20
2023-10-22T05:49:06.760Z,0.15
2023-10-22T05:51:35.377Z,0.10
2023-10-22T05:54:04.901Z,0.15
2023-10-22T05:56:34.825Z,0.15
2023-10-22T05:59:05.817Z,0.10
2023-10-22T06:01:34.651Z,0.20
2023-10-22T06:04:03.589Z,0.05
2023-10-22T06:06:32.721Z,0.22
2023-10-22T06:09:01.044Z,0.30
2023-10-22T06:11:30.259Z,0.30
2023-10-22T06:13:59.632Z,0.10
2023-10-22T06:16:30.258Z,0.15
2023-10-22T06:18:58.773Z,0.08
2023-10-22T06:21:27.659Z,0.20
2023-10-22T06:23:56.288Z,0.10
2023-10-22T06:26:26.260Z,0.40
2023-10-22T06:28:54.600Z,0.20
2023-10-22T06:31:24.304Z,0.52
2023-10-22T06:33:52.750Z,0.30
2023-10-22T06:36:25.662Z,0.25
2023-10-22T06:38:55.558Z,0.35
2023-10-22T06:41:25.652Z,0.20
2023-10-22T06:43:56.220Z,0.13
2023-10-22T06:46:26.353Z,0.20
2023-10-22T06:48:55.282Z,0.10
2023-10-22T06:51:24.859Z,0.28
2023-10-22T06:53:53.867Z,0.30
2023-10-22T06:56:23.029Z,0.20
2023-10-22T06:58:51.193Z,0.10
2023-10-22T07:01:19.540Z,0.17
2023-10-22T07:03:52.313Z,0.25
2023-10-22T07:06:21.724Z,0.25
2023-10-22T07:08:50.689Z,0.20
2023-10-22T07:11:19.030Z,0.20
2023-10-22T07:13:47.960Z,0.20
2023-10-22T07:16:16.669Z,0.25
2023-10-22T07:18:45.345Z,0.20
2023-10-22T07:21:14.032Z,0.30
2023-10-22T07:23:42.336Z,0.20
2023-10-22T07:26:11.173Z,0.20
2023-10-22T07:28:42.660Z,0.30
2023-10-22T07:31:14.714Z,0.13
2023-10-22T07:33:44.237Z,0.25
2023-10-22T07:36:12.666Z,0.20
2023-10-22T07:38:42.379Z,0.38
2023-10-22T07:41:17.012Z,0.30
2023-10-22T07:43:48.445Z,0.30
2023-10-22T07:46:16.864Z,0.22
2023-10-22T07:48:46.483Z,0.20
2023-10-22T07:51:16.626Z,0.47
2023-10-22T07:53:46.473Z,0.30
2023-10-22T07:56:18.035Z,0.22
2023-10-22T07:58:46.323Z,0.20
2023-10-22T08:01:14.753Z,0.30
2023-10-22T08:03:51.866Z,0.35
2023-10-22T08:06:20.366Z,0.22
2023-10-22T08:08:48.863Z,0.40
2023-10-22T08:11:17.557Z,0.35
2023-10-22T08:13:46.689Z,0.30
2023-10-22T08:16:15.100Z,0.40
2023-10-22T08:18:44.900Z,0.40
2023-10-22T08:21:14.807Z,0.30
2023-10-22T08:23:43.508Z,0.40
2023-10-22T08:26:12.557Z,0.50
2023-10-22T08:28:44.153Z,0.30
2023-10-22T08:31:15.380Z,0.43
2023-10-22T08:33:44.847Z,1.38
2023-10-22T08:36:13.653Z,0.32
2023-10-22T08:38:44.105Z,0.30
2023-10-22T08:41:19.180Z,0.30
2023-10-22T08:43:48.269Z,0.40
2023-10-22T08:46:20.223Z,0.80
2023-10-22T08:48:51.522Z,3.88
2023-10-22T08:51:20.726Z,3.17
2023-10-22T08:53:49.170Z,0.40
2023-10-22T08:56:18.310Z,0.30
2023-10-22T08:58:47.033Z,0.40
2023-10-22T09:01:15.777Z,1.17
2023-10-22T09:03:44.539Z,2.60
2023-10-22T09:06:14.355Z,0.40
2023-10-22T09:08:44.957Z,0.40
2023-10-22T09:11:14.847Z,0.40
2023-10-22T09:13:44.962Z,0.50
2023-10-22T09:16:28.128Z,1.02
2023-10-22T09:18:56.330Z,0.40
2023-10-22T09:21:24.758Z,0.40
2023-10-22T09:24:13.411Z,0.50
2023-10-22T09:26:48.191Z,0.43
2023-10-22T09:29:17.144Z,0.50
2023-10-22T09:31:55.866Z,1.42
2023-10-22T09:34:32.158Z,0.52
2023-10-22T09:37:00.955Z,0.47
2023-10-22T09:39:36.124Z,13.27
2023-10-22T09:44:38.826Z,0.60
2023-10-22T09:47:08.730Z,0.30
2023-10-22T09:49:39.847Z,0.40
2023-10-22T09:52:08.404Z,0.50
2023-10-22T09:54:40.312Z,0.50
2023-10-22T09:57:15.311Z,0.80
2023-10-22T09:59:47.143Z,0.40
2023-10-22T10:02:23.372Z,0.40
2023-10-22T10:04:53.227Z,0.32
2023-10-22T10:07:24.584Z,0.50
2023-10-22T10:09:53.228Z,0.50
2023-10-22T10:12:22.302Z,0.50
2023-10-22T10:14:51.557Z,0.47
2023-10-22T10:17:21.048Z,0.52
2023-10-22T10:19:49.852Z,0.60
2023-10-22T10:22:36.830Z,0.50
2023-10-22T10:25:24.117Z,0.38
2023-10-22T10:27:52.422Z,4.13
2023-10-22T10:30:21.650Z,0.93
2023-10-22T10:33:10.526Z,0.50
2023-10-22T10:35:51.032Z,0.60
2023-10-22T10:38:20.502Z,0.60
2023-10-22T10:40:50.295Z,0.50
2023-10-22T10:43:19.117Z,0.55
2023-10-22T10:46:06.130Z,0.60
2023-10-22T10:48:49.273Z,0.40
2023-10-22T10:51:18.875Z,0.40
2023-10-22T10:54:05.466Z,0.70
2023-10-22T10:56:46.233Z,0.52
2023-10-22T10:59:25.983Z,0.60
2023-10-22T11:02:00.829Z,0.60
2023-10-22T11:04:32.355Z,0.65
2023-10-22T11:07:13.445Z,0.60
2023-10-22T11:09:49.783Z,0.75
2023-10-22T11:12:21.040Z,0.52
2023-10-22T11:14:55.277Z,0.80
2023-10-22T11:17:23.902Z,0.45
2023-10-22T11:19:53.656Z,0.75
2023-10-22T11:22:22.455Z,0.80
2023-10-22T11:24:52.365Z,0.50
2023-10-22T11:27:21.722Z,0.60
2023-10-22T11:29:50.692Z,0.60
2023-10-22T11:32:22.813Z,0.60
2023-10-22T11:34:54.276Z,0.50
2023-10-22T11:37:23.875Z,0.57
2023-10-22T11:39:52.152Z,0.43
2023-10-22T11:42:20.387Z,0.38
2023-10-22T11:44:50.696Z,0.40
2023-10-22T11:47:26.789Z,0.93
2023-10-22T11:49:56.538Z,0.50
2023-10-22T11:52:38.032Z,0.40
2023-10-22T11:55:12.788Z,0.60
2023-10-22T11:57:49.426Z,0.30
2023-10-22T12:00:19.381Z,0.43
2023-10-22T12:02:59.929Z,0.38
2023-10-22T12:05:28.705Z,0.50
2023-10-22T12:07:57.933Z,0.20
2023-10-22T12:10:29.320Z,0.30
2023-10-22T12:12:59.700Z,0.30
2023-10-22T12:15:30.044Z,0.30
2023-10-22T12:18:00.984Z,0.22
2023-10-22T12:20:31.406Z,0.30
2023-10-22T12:23:00.617Z,0.20
2023-10-22T12:25:32.921Z,0.30
2023-10-22T12:28:02.103Z,0.40
2023-10-22T12:30:33.059Z,0.30
2023-10-22T12:33:17.854Z,0.30
2023-10-22T12:35:47.271Z,0.40
2023-10-22T12:38:15.898Z,0.30
2023-10-22T12:40:48.983Z,0.30
2023-10-22T12:43:17.699Z,0.60
2023-10-22T12:45:46.857Z,0.25
2023-10-22T12:48:17.613Z,0.47
2023-10-22T12:50:50.593Z,0.80
2023-10-22T12:53:21.180Z,0.75
2023-10-22T12:55:55.106Z,0.63
2023-10-22T12:58:25.031Z,0.45
2023-10-22T13:00:53.788Z,0.40
2023-10-22T13:03:35.781Z,0.40
2023-10-22T13:06:07.859Z,0.20
2023-10-22T13:08:36.925Z,0.40
2023-10-22T13:11:06.052Z,0.40
2023-10-22T13:13:36.150Z,0.32
2023-10-22T13:16:05.689Z,0.93
2023-10-22T13:18:36.206Z,0.70
2023-10-22T13:21:06.232Z,0.45
2023-10-22T13:23:35.378Z,0.32
2023-10-22T13:26:04.649Z,0.60
2023-10-22T13:28:33.298Z,0.50
2023-10-22T13:31:01.921Z,0.50
2023-10-22T13:33:31.172Z,0.30
2023-10-22T13:36:04.750Z,0.40
2023-10-22T13:38:35.075Z,0.22
2023-10-22T13:41:04.473Z,0.30
2023-10-22T13:43:33.524Z,0.80
2023-10-22T13:46:02.788Z,0.20
2023-10-22T13:48:31.728Z,0.28
2023-10-22T13:51:06.080Z,0.40
2023-10-22T13:53:34.966Z,0.40
2023-10-22T13:56:03.913Z,0.38
2023-10-22T13:58:33.747Z,3.85
2023-10-22T14:01:02.747Z,0.82
2023-10-22T14:03:34.507Z,0.73
2023-10-22T14:06:04.099Z,0.30
2023-10-22T14:08:33.132Z,0.40
2023-10-22T14:11:01.499Z,0.88
2023-10-22T14:13:34.845Z,0.55
2023-10-22T14:16:07.413Z,0.50
2023-10-22T14:18:39.379Z,0.40
2023-10-22T14:21:11.550Z,0.50
2023-10-22T14:23:40.321Z,0.50
2023-10-22T14:26:08.592Z,0.50
2023-10-22T14:28:37.693Z,0.40
2023-10-22T14:31:07.060Z,0.30
2023-10-22T14:33:36.586Z,0.45
2023-10-22T14:36:06.067Z,0.40
2023-10-22T14:38:34.453Z,0.40
2023-10-22T14:41:03.732Z,0.65
2023-10-22T14:43:34.441Z,0.43
2023-10-22T14:46:04.120Z,0.80
2023-10-22T14:48:34.554Z,0.70
2023-10-22T14:51:04.031Z,1.80
2023-10-22T14:53:34.313Z,4.07
2023-10-22T14:56:03.227Z,1.00
2023-10-22T14:58:33.283Z,1.00
2023-10-22T15:01:02.456Z,0.50
2023-10-22T15:03:31.372Z,0.40
2023-10-22T15:06:03.793Z,0.52
2023-10-22T15:08:35.601Z,0.77
2023-10-22T15:11:05.102Z,0.90
2023-10-22T15:13:35.637Z,0.93
2023-10-22T15:16:04.885Z,1.30
2023-10-22T15:18:33.934Z,1.00
2023-10-22T15:21:02.403Z,1.15
2023-10-22T15:23:32.422Z,1.10
2023-10-22T15:26:01.594Z,1.42
2023-10-22T15:28:32.449Z,1.50
2023-10-22T15:31:02.565Z,1.23
2023-10-22T15:33:40.170Z,1.30
2023-10-22T15:36:08.705Z,1.40
2023-10-22T15:38:37.550Z,1.23
2023-10-22T15:41:07.452Z,1.17
2023-10-22T15:43:38.318Z,1.35
2023-10-22T15:46:09.394Z,1.58
2023-10-22T15:48:38.364Z,1.63
2023-10-22T15:51:07.542Z,1.60
2023-10-22T15:53:36.462Z,2.53
2023-10-22T15:56:07.999Z,2.45
2023-10-22T15:58:36.823Z,1.90
2023-10-22T16:01:11.516Z,2.20
2023-10-22T16:03:43.197Z,2.17
2023-10-22T16:06:14.155Z,3.22
2023-10-22T16:08:44.838Z,2.33
2023-10-22T16:11:13.471Z,2.17
2023-10-22T16:13:42.297Z,2.30
2023-10-22T16:16:13.311Z,2.35
2023-10-22T16:18:41.620Z,2.42
2023-10-22T16:21:10.728Z,1.98
2023-10-22T16:23:41.586Z,2.30
2023-10-22T16:26:11.402Z,2.47
2023-10-22T16:28:40.161Z,1.98
2023-10-22T16:31:08.856Z,2.33
2023-10-22T16:33:42.274Z,5.57
2023-10-22T16:36:14.580Z,6.05
2023-10-22T16:38:48.881Z,2.65
2023-10-22T16:41:19.564Z,2.75
2023-10-22T16:43:47.857Z,2.30
2023-10-22T16:46:17.909Z,2.70
2023-10-22T16:48:46.653Z,2.67
2023-10-22T16:51:15.831Z,2.97
2023-10-22T16:53:44.228Z,2.72
2023-10-22T16:56:13.169Z,3.10
2023-10-22T16:58:48.668Z,4.57
2023-10-22T17:01:17.200Z,2.83
2023-10-22T17:03:51.362Z,2.83
2023-10-22T17:06:20.772Z,2.95
2023-10-22T17:08:52.851Z,2.83
2023-10-22T17:11:26.907Z,5.80
2023-10-22T17:13:55.759Z,4.22
2023-10-22T17:16:31.155Z,2.55
2023-10-22T17:19:01.358Z,3.00
2023-10-22T17:21:36.434Z,3.00
2023-10-22T17:24:06.243Z,2.97
2023-10-22T17:26:36.684Z,3.28
2023-10-22T17:29:05.911Z,3.63
2023-10-22T17:31:34.342Z,3.08
2023-10-22T17:34:05.764Z,3.03
2023-10-22T17:36:37.987Z,3.03
2023-10-22T17:39:07.015Z,3.08
2023-10-22T17:41:38.743Z,3.40
2023-10-22T17:44:07.630Z,3.30
2023-10-22T17:46:38.042Z,3.50
2023-10-22T17:49:09.880Z,3.67
2023-10-22T17:51:39.511Z,4.32
2023-10-22T17:54:09.340Z,3.83
2023-10-22T17:56:38.484Z,3.95
2023-10-22T17:59:14.970Z,3.63
2023-10-22T18:01:43.312Z,3.90
2023-10-22T18:04:15.863Z,3.83
2023-10-22T18:06:46.086Z,3.45
2023-10-22T18:09:15.637Z,3.35
2023-10-22T18:11:44.936Z,4.03
2023-10-22T18:14:18.907Z,4.60
2023-10-22T18:16:47.239Z,5.75
2023-10-22T18:19:27.310Z,4.15
2023-10-22T18:22:03.914Z,4.03
2023-10-22T18:24:32.406Z,3.30
2023-10-22T18:27:01.339Z,3.97
2023-10-22T18:29:32.784Z,3.13
2023-10-22T18:32:01.275Z,3.50
2023-10-22T18:34:30.688Z,3.65
2023-10-22T18:36:59.645Z,3.40
2023-10-22T18:39:28.103Z,3.50
2023-10-22T18:42:08.041Z,3.50
2023-10-22T18:44:43.209Z,3.00
2023-10-22T18:47:11.813Z,3.00
2023-10-22T18:49:40.336Z,3.22
2023-10-22T18:52:09.456Z,3.35
2023-10-22T18:54:38.502Z,2.67
2023-10-22T18:57:07.092Z,2.90
2023-10-22T18:59:36.967Z,3.65
2023-10-22T19:02:08.461Z,2.58
2023-10-22T19:04:37.360Z,5.70
2023-10-22T19:07:06.791Z,4.30
2023-10-22T19:09:38.350Z,2.70
2023-10-22T19:12:07.201Z,2.50
2023-10-22T19:14:39.652Z,2.08
2023-10-22T19:17:11.902Z,2.08
2023-10-22T19:19:40.628Z,2.20
2023-10-22T19:22:08.968Z,2.67
2023-10-22T19:24:39.984Z,3.33
2023-10-22T19:27:09.446Z,3.17
2023-10-22T19:29:39.435Z,2.92
2023-10-22T19:32:10.313Z,2.70
2023-10-22T19:34:39.154Z,2.80
2023-10-22T19:37:08.288Z,2.60
2023-10-22T19:39:36.564Z,2.50
2023-10-22T19:42:05.417Z,3.10
2023-10-22T19:44:35.778Z,2.75
2023-10-22T19:47:04.769Z,2.75
2023-10-22T19:49:33.581Z,2.35
2023-10-22T19:52:03.646Z,2.88
2023-10-22T19:54:36.623Z,2.85
2023-10-22T19:57:07.618Z,2.40
2023-10-22T19:59:37.000Z,3.33
2023-10-22T20:02:17.251Z,2.90
2023-10-22T20:04:47.040Z,2.63
2023-10-22T20:07:15.517Z,2.60
2023-10-22T20:09:44.808Z,2.15
2023-10-22T20:12:15.598Z,2.17
2023-10-22T20:14:44.334Z,2.10
2023-10-22T20:17:12.755Z,2.25
2023-10-22T20:19:42.301Z,2.00
2023-10-22T20:22:13.809Z,2.42
2023-10-22T20:24:42.428Z,1.98
2023-10-22T20:27:11.145Z,1.90
2023-10-22T20:29:39.853Z,2.00
2023-10-22T20:32:08.639Z,1.92
2023-10-22T20:34:37.012Z,1.88
2023-10-22T20:37:07.038Z,2.15
2023-10-22T20:39:35.287Z,1.77
2023-10-22T20:42:04.071Z,2.17
2023-10-22T20:44:33.802Z,2.00
2023-10-22T20:47:02.274Z,2.15
2023-10-22T20:49:32.695Z,2.10
2023-10-22T20:52:00.965Z,1.92
2023-10-22T20:54:30.751Z,2.13
2023-10-22T20:56:59.684Z,2.00
2023-10-22T20:59:28.676Z,2.13
2023-10-22T21:01:58.142Z,2.20
2023-10-22T21:04:26.686Z,2.60
2023-10-22T21:06:55.118Z,1.58
2023-10-22T21:09:26.105Z,1.70
2023-10-22T21:11:55.479Z,2.25
2023-10-22T21:14:25.932Z,1.90
2023-10-22T21:16:54.354Z,1.83
2023-10-22T21:19:23.038Z,2.00
2023-10-22T21:21:51.422Z,1.75
2023-10-22T21:24:20.045Z,1.80
2023-10-22T21:26:48.554Z,1.88
2023-10-22T21:29:17.458Z,2.15
2023-10-22T21:31:45.836Z,2.05
2023-10-22T21:34:14.210Z,1.33
2023-10-22T21:36:42.847Z,1.90
2023-10-22T21:39:11.122Z,1.85
2023-10-22T21:41:40.840Z,1.90
2023-10-22T21:44:09.587Z,1.75
2023-10-22T21:46:38.556Z,1.17
2023-10-22T21:49:07.414Z,1.52
2023-10-22T21:51:36.306Z,1.80
2023-10-22T21:54:04.956Z,1.60
2023-10-22T21:56:34.997Z,1.50
2023-10-22T21:59:03.443Z,1.23
2023-10-22T22:01:39.697Z,1.92
2023-10-22T22:04:09.174Z,1.60
2023-10-22T22:06:39.331Z,1.35
2023-10-22T22:09:10.201Z,1.73
2023-10-22T22:11:40.474Z,1.42
2023-10-22T22:14:10.329Z,1.60
2023-10-22T22:16:38.986Z,1.88
2023-10-22T22:19:08.430Z,1.60
2023-10-22T22:21:37.145Z,1.73
2023-10-22T22:24:06.105Z,1.98
2023-10-22T22:26:36.743Z,1.70
2023-10-22T22:29:05.561Z,1.80
2023-10-22T22:31:34.400Z,1.70
2023-10-22T22:34:04.802Z,1.70
2023-10-22T22:36:33.401Z,1.85
2023-10-22T22:39:02.560Z,1.75
2023-10-22T22:41:32.536Z,1.90
2023-10-22T22:44:01.635Z,1.70
2023-10-22T22:46:30.586Z,1.75
2023-10-22T22:48:59.411Z,2.22
2023-10-22T22:51:28.497Z,1.60
2023-10-22T22:53:59.253Z,1.55
2023-10-22T22:56:28.108Z,1.27
2023-10-22T22:58:56.425Z,1.90
2023-10-22T23:01:25.455Z,1.63
2023-10-22T23:03:56.624Z,1.35
2023-10-22T23:06:25.521Z,1.65
2023-10-22T23:08:54.015Z,1.45
2023-10-22T23:11:23.443Z,1.60
2023-10-22T23:13:51.766Z,1.95
2023-10-22T23:16:20.039Z,1.85
2023-10-22T23:18:51.152Z,1.63
2023-10-22T23:21:19.492Z,1.73
2023-10-22T23:23:50.589Z,1.48
2023-10-22T23:26:19.073Z,1.30
2023-10-22T23:28:47.358Z,1.27
2023-10-22T23:31:15.888Z,1.67
2023-10-22T23:33:46.357Z,1.50
2023-10-22T23:36:14.864Z,1.75
2023-10-22T23:38:43.773Z,1.38
2023-10-22T23:41:11.908Z,1.70
2023-10-22T23:43:43.546Z,1.85
2023-10-22T23:46:14.103Z,2.28
2023-10-22T23:48:42.625Z,1.50
2023-10-22T23:51:10.874Z,1.55
2023-10-22T23:53:39.160Z,1.60
2023-10-22T23:56:07.387Z,1.42
2023-10-22T23:58:36.327Z,1.50
